createdAt,value
2018-04-10T00:01:59.375Z,37.57
2018-04-10T00:04:26.942Z,41.57
2018-04-10T00:06:55.266Z,36.13
2018-04-10T00:09:22.795Z,38.37
2018-04-10T00:11:50.496Z,37.83
2018-04-10T00:14:18.108Z,40.20
2018-04-10T00:16:45.647Z,43.70
2018-04-10T00:19:13.987Z,47.30
2018-04-10T00:21:41.527Z,49.03
2018-04-10T00:24:09.092Z,45.87
2018-04-10T00:26:36.637Z,38.60
2018-04-10T00:29:04.204Z,34.20
2018-04-10T00:31:31.738Z,43.83
2018-04-10T00:33:59.318Z,40.23
2018-04-10T00:36:27.517Z,40.00
2018-04-10T00:38:55.111Z,38.90
2018-04-10T00:41:22.646Z,44.73
2018-04-10T00:43:50.230Z,40.57
2018-04-10T00:46:18.371Z,43.20
2018-04-10T00:48:45.912Z,40.77
2018-04-10T00:51:13.476Z,41.60
2018-04-10T00:53:40.988Z,45.10
2018-04-10T00:56:09.315Z,44.00
2018-04-10T00:58:36.903Z,44.27
2018-04-10T01:01:04.463Z,45.40
2018-04-10T01:03:32.006Z,44.37
2018-04-10T01:05:59.599Z,40.47
2018-04-10T01:08:27.139Z,43.10
2018-04-10T01:10:54.711Z,39.07
2018-04-10T01:13:22.282Z,44.63
2018-04-10T01:15:50.686Z,42.97
2018-04-10T01:18:18.223Z,41.80
2018-04-10T01:20:46.574Z,40.07
2018-04-10T01:23:15.023Z,47.30
2018-04-10T01:25:42.591Z,38.10
2018-04-10T01:28:10.136Z,45.03
2018-04-10T01:30:37.702Z,43.90
2018-04-10T01:33:05.392Z,42.73
2018-04-10T01:35:33.099Z,45.00
2018-04-10T01:38:01.396Z,47.60
2018-04-10T01:40:28.971Z,40.50
2018-04-10T01:42:56.503Z,44.60
2018-04-10T01:45:24.088Z,41.70
2018-04-10T01:47:51.643Z,39.27
2018-04-10T01:50:19.231Z,41.57
2018-04-10T01:52:46.776Z,40.70
2018-04-10T01:55:14.303Z,47.90
2018-04-10T01:57:41.840Z,43.27
2018-04-10T02:00:10.187Z,38.53
2018-04-10T02:02:37.725Z,39.60
2018-04-10T02:05:05.307Z,41.20
2018-04-10T02:07:32.842Z,39.37
2018-04-10T02:10:00.443Z,44.70
2018-04-10T02:12:27.971Z,40.53
2018-04-10T02:14:55.617Z,50.70
2018-04-10T02:17:26.103Z,39.07
2018-04-10T02:19:53.640Z,41.10
2018-04-10T02:22:21.219Z,40.40
2018-04-10T02:24:48.762Z,41.80
2018-04-10T02:27:16.603Z,46.80
2018-04-10T02:29:44.146Z,43.90
2018-04-10T02:32:12.065Z,42.53
2018-04-10T02:34:39.628Z,41.17
2018-04-10T02:37:07.969Z,49.47
2018-04-10T02:39:35.516Z,55.47
2018-04-10T02:42:03.098Z,43.57
2018-04-10T02:44:30.633Z,42.67
2018-04-10T02:46:58.207Z,40.73
2018-04-10T02:49:25.755Z,39.13
2018-04-10T02:51:53.331Z,45.87
2018-04-10T02:54:20.875Z,38.83
2018-04-10T02:56:48.521Z,56.13
2018-04-10T02:59:16.127Z,44.17
2018-04-10T03:01:43.896Z,53.53
2018-04-10T03:04:11.423Z,39.33
2018-04-10T03:06:38.999Z,40.90
2018-04-10T03:09:06.542Z,46.80
2018-04-10T03:11:34.114Z,38.80
2018-04-10T03:14:01.682Z,41.57
2018-04-10T03:16:29.391Z,41.80
2018-04-10T03:18:56.934Z,39.47
2018-04-10T03:21:25.275Z,38.20
2018-04-10T03:23:52.810Z,44.93
2018-04-10T03:26:20.375Z,47.07
2018-04-10T03:28:47.920Z,53.70
2018-04-10T03:31:15.491Z,49.57
2018-04-10T03:33:43.028Z,42.97
2018-04-10T03:36:10.956Z,42.60
2018-04-10T03:38:40.363Z,38.83
2018-04-10T03:41:07.915Z,44.10
2018-04-10T03:43:35.529Z,49.60
2018-04-10T03:46:03.908Z,45.90
2018-04-10T03:48:31.470Z,40.67
2018-04-10T03:50:59.010Z,41.40
2018-04-10T03:53:26.630Z,46.97
2018-04-10T03:55:54.179Z,41.23
2018-04-10T03:58:21.787Z,38.33
2018-04-10T04:00:49.387Z,41.80
2018-04-10T04:03:16.962Z,39.63
2018-04-10T04:05:44.496Z,42.70
2018-04-10T04:08:12.079Z,47.67
2018-04-10T04:10:39.619Z,48.60
2018-04-10T04:13:07.173Z,40.50
2018-04-10T04:15:34.747Z,39.63
2018-04-10T04:18:02.291Z,49.43
2018-04-10T04:20:42.549Z,46.27
2018-04-10T04:23:10.970Z,43.23
2018-04-10T04:25:38.851Z,48.57
2018-04-10T04:28:06.388Z,38.53
2018-04-10T04:30:33.966Z,35.07
2018-04-10T04:33:01.539Z,40.47
2018-04-10T04:35:29.106Z,41.90
2018-04-10T04:37:56.862Z,47.40
2018-04-10T04:40:25.189Z,44.33
2018-04-10T04:42:52.735Z,39.63
2018-04-10T04:45:20.276Z,33.53
2018-04-10T04:47:47.848Z,37.30
2018-04-10T04:50:15.380Z,35.13
2018-04-10T04:52:43.704Z,41.90
2018-04-10T04:55:11.252Z,38.63
2018-04-10T04:57:38.806Z,45.57
2018-04-10T05:00:06.638Z,40.10
2018-04-10T05:02:34.999Z,37.33
2018-04-10T05:05:02.532Z,39.30
2018-04-10T05:07:30.103Z,33.13
2018-04-10T05:09:57.774Z,41.60
2018-04-10T05:12:25.331Z,42.30
2018-04-10T05:14:52.879Z,37.17
2018-04-10T05:17:20.439Z,37.40
2018-04-10T05:19:47.972Z,41.43
2018-04-10T05:22:15.552Z,38.90
2018-04-10T05:24:43.272Z,35.40
2018-04-10T05:27:10.807Z,49.57
2018-04-10T05:29:38.383Z,61.47
2018-04-10T05:32:05.937Z,49.27
2018-04-10T05:34:33.490Z,59.23
2018-04-10T05:37:01.812Z,54.60
2018-04-10T05:39:29.390Z,55.67
2018-04-10T05:41:57.324Z,38.67
2018-04-10T05:44:24.919Z,38.60
2018-04-10T05:46:52.483Z,36.63
2018-04-10T05:49:20.069Z,34.40
2018-04-10T05:51:48.421Z,44.23
2018-04-10T05:54:16.157Z,35.87
2018-04-10T05:56:43.694Z,34.23
2018-04-10T05:59:11.373Z,29.73
2018-04-10T06:01:39.059Z,30.60
2018-04-10T06:04:06.622Z,31.60
2018-04-10T06:06:34.477Z,45.00
2018-04-10T06:09:02.118Z,36.80
2018-04-10T06:11:29.671Z,50.07
2018-04-10T06:13:57.293Z,34.97
2018-04-10T06:16:25.692Z,38.70
2018-04-10T06:18:53.278Z,44.20
2018-04-10T06:21:20.861Z,34.10
2018-04-10T06:23:48.442Z,45.07
2018-04-10T06:26:16.059Z,45.97
2018-04-10T06:28:43.595Z,36.90
2018-04-10T06:31:11.159Z,38.00
2018-04-10T06:33:39.490Z,37.73
2018-04-10T06:36:07.084Z,49.93
2018-04-10T06:38:35.383Z,51.50
2018-04-10T06:41:03.174Z,40.93
2018-04-10T06:43:30.730Z,50.43
2018-04-10T06:45:58.267Z,61.87
2018-04-10T06:48:25.843Z,72.90
2018-04-10T06:50:53.421Z,39.10
2018-04-10T06:53:21.057Z,58.67
2018-04-10T06:55:48.672Z,60.17
2018-04-10T06:58:17.724Z,54.27
2018-04-10T07:00:45.291Z,34.80
2018-04-10T07:03:12.831Z,35.37
2018-04-10T07:05:40.398Z,42.43
2018-04-10T07:08:07.947Z,52.07
2018-04-10T07:10:35.537Z,33.17
2018-04-10T07:13:03.139Z,33.63
2018-04-10T07:15:30.930Z,29.23
2018-04-10T07:17:58.481Z,19.03
2018-04-10T07:20:26.068Z,29.50
2018-04-10T07:22:53.623Z,25.20
2018-04-10T07:25:22.011Z,22.40
2018-04-10T07:27:49.599Z,30.23
2018-04-10T07:30:17.140Z,21.33
2018-04-10T07:32:44.928Z,36.03
2018-04-10T07:35:12.496Z,23.83
2018-04-10T07:37:40.034Z,17.20
2018-04-10T07:40:07.614Z,20.20
2018-04-10T07:42:35.155Z,19.53
2018-04-10T07:45:02.738Z,23.87
2018-04-10T07:47:30.280Z,14.90
2018-04-10T07:49:57.851Z,25.73
2018-04-10T07:52:25.402Z,24.43
2018-04-10T07:54:53.858Z,14.87
2018-04-10T07:57:21.399Z,28.23
2018-04-10T07:59:49.018Z,14.50
2018-04-10T08:02:17.360Z,27.43
2018-04-10T08:04:44.964Z,21.60
2018-04-10T08:07:13.573Z,25.97
2018-04-10T08:09:41.942Z,19.40
2018-04-10T08:12:09.632Z,23.03
2018-04-10T08:14:37.341Z,18.50
2018-04-10T08:17:04.921Z,36.97
2018-04-10T08:19:33.388Z,17.60
2018-04-10T08:22:01.734Z,24.17
2018-04-10T08:24:29.267Z,28.17
2018-04-10T08:26:56.825Z,27.53
2018-04-10T08:29:24.359Z,23.93
2018-04-10T08:31:51.942Z,29.60
2018-04-10T08:34:19.535Z,14.53
2018-04-10T08:36:47.095Z,15.83
2018-04-10T08:39:16.147Z,18.60
2018-04-10T08:41:43.767Z,16.93
2018-04-10T08:44:12.121Z,12.50
2018-04-10T08:46:40.459Z,12.47
2018-04-10T08:49:08.023Z,11.97
2018-04-10T08:51:35.565Z,13.37
2018-04-10T08:54:03.148Z,12.17
2018-04-10T08:56:30.655Z,10.37
2018-04-10T08:58:58.214Z,20.47
2018-04-10T09:01:25.737Z,15.20
2018-04-10T09:03:53.328Z,14.07
2018-04-10T09:06:20.846Z,8.50
2018-04-10T09:08:48.420Z,12.30
2018-04-10T09:11:15.966Z,16.23
2018-04-10T09:13:43.538Z,16.20
2018-04-10T09:16:11.135Z,10.80
2018-04-10T09:18:38.707Z,8.00
2018-04-10T09:21:06.265Z,12.57
2018-04-10T09:23:33.830Z,16.43
2018-04-10T09:26:02.135Z,20.77
2018-04-10T09:28:29.695Z,6.77
2018-04-10T09:30:57.252Z,10.00
2018-04-10T09:33:24.814Z,13.17
2018-04-10T09:35:52.546Z,9.10
2018-04-10T09:38:21.154Z,14.43
2018-04-10T09:40:48.687Z,8.77
2018-04-10T09:43:17.317Z,10.40
2018-04-10T09:45:44.842Z,10.13
2018-04-10T09:48:12.374Z,25.93
2018-04-10T09:50:39.928Z,15.67
2018-04-10T09:53:07.471Z,7.87
2018-04-10T09:55:35.040Z,10.30
2018-04-10T09:58:02.576Z,16.20
2018-04-10T10:00:35.687Z,10.10
2018-04-10T10:03:03.233Z,9.00
2018-04-10T10:05:30.793Z,19.00
2018-04-10T10:07:58.345Z,16.17
2018-04-10T10:10:26.304Z,6.10
2018-04-10T10:12:53.920Z,5.10
2018-04-10T10:15:21.475Z,18.07
2018-04-10T10:17:49.804Z,15.83
2018-04-10T10:20:17.331Z,9.10
2018-04-10T10:22:44.904Z,18.23
2018-04-10T10:25:12.447Z,5.77
2018-04-10T10:27:40.017Z,10.63
2018-04-10T10:30:07.555Z,12.87
2018-04-10T10:32:35.108Z,11.73
2018-04-10T10:35:03.403Z,8.40
2018-04-10T10:37:30.979Z,7.83
2018-04-10T10:39:58.536Z,6.73
2018-04-10T10:42:26.308Z,10.23
2018-04-10T10:44:53.848Z,6.43
2018-04-10T10:47:21.407Z,8.53
2018-04-10T10:49:48.950Z,5.90
2018-04-10T10:52:17.282Z,4.20
2018-04-10T10:54:44.828Z,9.20
2018-04-10T10:57:12.407Z,10.53
2018-04-10T10:59:39.983Z,15.53
2018-04-10T11:02:07.643Z,11.33
2018-04-10T11:04:35.380Z,9.63
2018-04-10T11:07:02.963Z,11.00
2018-04-10T11:09:30.531Z,14.03
2018-04-10T11:11:58.939Z,10.40
2018-04-10T11:14:26.488Z,9.23
2018-04-10T11:16:54.183Z,9.57
2018-04-10T11:19:21.679Z,6.47
2018-04-10T11:21:49.250Z,7.33
2018-04-10T11:24:16.789Z,5.27
2018-04-10T11:26:44.374Z,12.40
2018-04-10T11:29:12.051Z,5.93
2018-04-10T11:31:39.668Z,10.17
2018-04-10T11:34:07.196Z,15.00
2018-04-10T11:36:34.788Z,5.47
2018-04-10T11:39:02.343Z,8.20
2018-04-10T11:41:29.936Z,6.80
2018-04-10T11:43:57.511Z,12.57
2018-04-10T11:46:25.928Z,8.63
2018-04-10T11:48:53.707Z,12.97
2018-04-10T11:51:21.280Z,7.50
2018-04-10T11:53:48.829Z,10.57
2018-04-10T11:56:16.406Z,9.17
2018-04-10T11:58:43.953Z,9.47
2018-04-10T12:01:11.551Z,8.53
2018-04-10T12:03:39.861Z,5.43
2018-04-10T12:06:07.432Z,7.17
2018-04-10T12:08:35.159Z,6.87
2018-04-10T12:11:03.487Z,10.57
2018-04-10T12:13:31.021Z,9.67
2018-04-10T12:15:58.631Z,10.10
2018-04-10T12:18:27.091Z,11.20
2018-04-10T12:20:54.648Z,12.30
2018-04-10T12:23:22.195Z,6.53
2018-04-10T12:25:49.809Z,7.10
2018-04-10T12:28:18.131Z,10.23
2018-04-10T12:30:45.668Z,16.67
2018-04-10T12:33:13.223Z,9.10
2018-04-10T12:35:40.759Z,3.13
2018-04-10T12:38:08.331Z,5.67
2018-04-10T12:40:36.629Z,4.93
2018-04-10T12:43:04.265Z,9.53
2018-04-10T12:45:32.570Z,13.07
2018-04-10T12:48:00.133Z,7.70
2018-04-10T12:50:27.685Z,9.37
2018-04-10T12:52:55.239Z,8.73
2018-04-10T12:55:22.781Z,8.83
2018-04-10T12:57:51.111Z,9.07
2018-04-10T13:00:18.641Z,8.37
2018-04-10T13:02:46.203Z,8.50
2018-04-10T13:05:13.735Z,6.00
2018-04-10T13:07:41.298Z,6.03
2018-04-10T13:10:09.596Z,7.57
2018-04-10T13:12:37.185Z,7.83
2018-04-10T13:15:04.741Z,7.63
2018-04-10T13:17:32.279Z,9.07
2018-04-10T13:19:59.846Z,11.03
2018-04-10T13:22:27.385Z,6.00
2018-04-10T13:24:55.062Z,5.90
2018-04-10T13:27:22.725Z,4.80
2018-04-10T13:29:50.287Z,4.70
2018-04-10T13:32:17.822Z,6.00
2018-04-10T13:34:45.399Z,7.60
2018-04-10T13:37:12.951Z,12.00
2018-04-10T13:39:40.529Z,7.80
2018-04-10T13:42:08.056Z,8.60
2018-04-10T13:44:35.641Z,8.93
2018-04-10T13:47:03.184Z,7.50
2018-04-10T13:49:30.753Z,5.37
2018-04-10T13:51:58.296Z,4.20
2018-04-10T13:54:25.865Z,14.30
2018-04-10T13:56:53.618Z,11.23
2018-04-10T13:59:21.155Z,6.73
2018-04-10T14:01:49.506Z,7.17
2018-04-10T14:04:17.036Z,6.90
2018-04-10T14:06:44.604Z,9.30
2018-04-10T14:09:12.162Z,12.10
2018-04-10T14:11:39.759Z,4.40
2018-04-10T14:14:07.355Z,4.10
2018-04-10T14:16:34.944Z,4.83
2018-04-10T14:19:02.487Z,5.00
2018-04-10T14:21:30.067Z,7.50
2018-04-10T14:23:57.615Z,11.27
2018-04-10T14:26:25.237Z,3.33
2018-04-10T14:28:53.809Z,4.73
2018-04-10T14:31:21.461Z,8.70
2018-04-10T14:33:49.187Z,4.00
2018-04-10T14:36:16.750Z,2.60
2018-04-10T14:38:44.296Z,5.63
2018-04-10T14:41:12.218Z,10.03
2018-04-10T14:43:39.811Z,14.57
2018-04-10T14:46:07.390Z,4.83
2018-04-10T14:48:34.999Z,9.03
2018-04-10T14:51:02.587Z,7.23
2018-04-10T14:53:30.141Z,4.53
2018-04-10T14:55:58.481Z,2.43
2018-04-10T14:58:26.060Z,6.00
2018-04-10T15:00:53.675Z,9.40
2018-04-10T15:03:21.216Z,2.53
2018-04-10T15:05:49.053Z,3.53
2018-04-10T15:08:17.365Z,2.20
2018-04-10T15:10:45.000Z,6.40
2018-04-10T15:13:13.327Z,6.13
2018-04-10T15:15:41.028Z,3.30
2018-04-10T15:18:08.618Z,1.53
2018-04-10T15:20:36.153Z,8.73
2018-04-10T15:23:03.943Z,3.37
2018-04-10T15:25:31.482Z,4.53
2018-04-10T15:27:59.103Z,10.13
2018-04-10T15:30:26.645Z,7.53
2018-04-10T15:32:54.214Z,9.07
2018-04-10T15:35:21.755Z,3.23
2018-04-10T15:37:49.547Z,6.00
2018-04-10T15:40:17.086Z,7.90
2018-04-10T15:42:44.963Z,4.00
2018-04-10T15:45:12.508Z,7.17
2018-04-10T15:47:40.058Z,3.50
2018-04-10T15:50:07.736Z,3.57
2018-04-10T15:52:35.270Z,7.07
2018-04-10T15:55:02.840Z,5.40
2018-04-10T15:57:30.379Z,4.63
2018-04-10T15:59:58.996Z,5.97
2018-04-10T16:02:26.549Z,5.70
2018-04-10T16:04:54.122Z,2.73
2018-04-10T16:07:21.704Z,4.37
2018-04-10T16:09:49.259Z,6.37
2018-04-10T16:12:16.842Z,9.13
2018-04-10T16:14:44.450Z,5.07
2018-04-10T16:17:12.071Z,6.53
2018-04-10T16:19:40.399Z,9.40
2018-04-10T16:22:07.925Z,4.03
2018-04-10T16:24:35.488Z,6.33
2018-04-10T16:27:03.033Z,5.50
2018-04-10T16:29:30.957Z,3.73
2018-04-10T16:31:58.502Z,8.40
2018-04-10T16:34:26.100Z,9.53
2018-04-10T16:36:53.668Z,6.77
2018-04-10T16:39:21.278Z,4.50
2018-04-10T16:41:48.856Z,7.90
2018-04-10T16:44:16.398Z,5.40
2018-04-10T16:46:43.971Z,3.23
2018-04-10T16:49:11.774Z,11.57
2018-04-10T16:51:39.396Z,3.83
2018-04-10T16:54:06.967Z,4.73
2018-04-10T16:56:34.861Z,9.03
2018-04-10T16:59:02.504Z,3.90
2018-04-10T17:01:30.061Z,5.20
2018-04-10T17:03:57.638Z,13.97
2018-04-10T17:06:25.198Z,10.10
2018-04-10T17:08:52.789Z,4.40
2018-04-10T17:11:20.342Z,4.73
2018-04-10T17:13:47.948Z,12.53
2018-04-10T17:16:15.510Z,3.43
2018-04-10T17:18:43.250Z,9.80
2018-04-10T17:21:10.787Z,9.40
2018-04-10T17:23:38.380Z,7.43
2018-04-10T17:26:05.910Z,8.23
2018-04-10T17:28:33.468Z,6.77
2018-04-10T17:31:01.780Z,8.17
2018-04-10T17:33:29.393Z,15.60
2018-04-10T17:35:57.053Z,6.83
2018-04-10T17:38:25.663Z,6.87
2018-04-10T17:40:53.199Z,6.30
2018-04-10T17:43:21.575Z,10.30
2018-04-10T17:45:49.152Z,11.40
2018-04-10T17:48:17.446Z,7.40
2018-04-10T17:50:45.124Z,3.17
2018-04-10T17:53:12.682Z,9.63
2018-04-10T17:55:40.276Z,11.60
2018-04-10T17:58:07.822Z,10.67
2018-04-10T18:00:35.521Z,9.57
2018-04-10T18:03:03.094Z,10.93
2018-04-10T18:05:31.040Z,6.60
2018-04-10T18:07:59.343Z,8.30
2018-04-10T18:10:26.930Z,5.87
2018-04-10T18:12:54.786Z,8.27
2018-04-10T18:15:22.452Z,7.73
2018-04-10T18:17:50.044Z,12.13
2018-04-10T18:20:17.657Z,4.37
2018-04-10T18:22:45.187Z,8.70
2018-04-10T18:25:12.764Z,7.03
2018-04-10T18:27:40.828Z,9.90
2018-04-10T18:30:09.187Z,9.43
2018-04-10T18:32:37.103Z,11.33
2018-04-10T18:35:04.676Z,7.90
2018-04-10T18:37:32.226Z,7.93
2018-04-10T18:39:59.848Z,4.23
2018-04-10T18:42:27.403Z,9.03
2018-04-10T18:44:55.752Z,10.00
2018-04-10T18:47:23.358Z,10.10
2018-04-10T18:49:51.771Z,11.43
2018-04-10T18:52:20.171Z,6.03
2018-04-10T18:54:47.754Z,5.03
2018-04-10T18:57:15.325Z,11.73
2018-04-10T18:59:42.895Z,22.03
2018-04-10T19:02:10.476Z,14.83
2018-04-10T19:04:38.035Z,10.50
2018-04-10T19:07:05.609Z,13.47
2018-04-10T19:09:33.211Z,5.77
2018-04-10T19:12:00.772Z,9.90
2018-04-10T19:14:29.148Z,8.73
2018-04-10T19:16:56.839Z,6.93
2018-04-10T19:19:24.430Z,8.00
2018-04-10T19:21:52.021Z,4.40
2018-04-10T19:24:19.635Z,7.90
2018-04-10T19:26:47.246Z,10.13
2018-04-10T19:29:14.823Z,8.80
2018-04-10T19:31:43.569Z,7.63
2018-04-10T19:34:11.132Z,9.20
2018-04-10T19:36:38.861Z,7.00
2018-04-10T19:39:06.407Z,6.37
2018-04-10T19:41:33.978Z,7.70
2018-04-10T19:44:01.535Z,6.70
2018-04-10T19:46:29.116Z,7.30
2018-04-10T19:48:56.689Z,12.40
2018-04-10T19:51:24.316Z,6.77
2018-04-10T19:53:51.860Z,9.23
2018-04-10T19:56:20.237Z,8.37
2018-04-10T19:58:47.930Z,14.33
2018-04-10T20:01:15.508Z,6.70
2018-04-10T20:03:43.069Z,10.90
2018-04-10T20:06:10.700Z,3.40
2018-04-10T20:08:38.290Z,5.60
2018-04-10T20:11:05.828Z,6.93
2018-04-10T20:13:33.421Z,6.17
2018-04-10T20:16:01.154Z,5.03
2018-04-10T20:18:28.894Z,7.50
2018-04-10T20:20:57.227Z,5.63
2018-04-10T20:23:24.825Z,5.57
2018-04-10T20:25:53.143Z,4.37
2018-04-10T20:28:20.762Z,7.80
2018-04-10T20:30:49.085Z,13.70
2018-04-10T20:33:16.674Z,11.10
2018-04-10T20:35:44.259Z,7.50
2018-04-10T20:38:11.815Z,7.00
2018-04-10T20:40:40.138Z,11.07
2018-04-10T20:43:07.909Z,7.53
2018-04-10T20:45:35.451Z,9.57
2018-04-10T20:48:03.011Z,8.27
2018-04-10T20:50:30.790Z,15.87
2018-04-10T20:52:58.357Z,9.33
2018-04-10T20:55:25.890Z,6.60
2018-04-10T20:57:53.474Z,5.97
2018-04-10T21:00:21.983Z,8.13
2018-04-10T21:02:49.595Z,12.00
2018-04-10T21:05:17.374Z,7.80
2018-04-10T21:07:44.960Z,6.50
2018-04-10T21:10:12.775Z,7.83
2018-04-10T21:12:40.347Z,6.80
2018-04-10T21:15:08.193Z,5.57
2018-04-10T21:17:35.773Z,5.90
2018-04-10T21:20:03.332Z,7.13
2018-04-10T21:22:30.875Z,5.60
2018-04-10T21:24:58.634Z,10.57
2018-04-10T21:27:26.935Z,8.37
2018-04-10T21:29:54.494Z,7.67
2018-04-10T21:32:22.051Z,8.30
2018-04-10T21:34:49.609Z,5.20
2018-04-10T21:37:17.147Z,4.77
2018-04-10T21:39:45.481Z,8.37
2018-04-10T21:42:13.060Z,19.83
2018-04-10T21:44:40.604Z,5.73
2018-04-10T21:47:08.403Z,5.70
2018-04-10T21:49:36.815Z,4.90
2018-04-10T21:52:04.379Z,9.13
2018-04-10T21:54:31.920Z,4.50
2018-04-10T21:56:59.611Z,7.00
2018-04-10T21:59:27.163Z,8.83
2018-04-10T22:01:54.732Z,7.60
2018-04-10T22:04:22.269Z,6.40
2018-04-10T22:06:49.843Z,7.00
2018-04-10T22:09:17.389Z,7.60
2018-04-10T22:11:44.990Z,11.87
2018-04-10T22:14:12.531Z,13.47
2018-04-10T22:16:40.228Z,7.20
2018-04-10T22:19:07.806Z,7.90
2018-04-10T22:21:36.147Z,10.77
2018-04-10T22:24:03.811Z,7.50
2018-04-10T22:26:31.723Z,6.63
2018-04-10T22:28:59.258Z,9.40
2018-04-10T22:31:26.803Z,15.87
2018-04-10T22:33:54.356Z,7.50
2018-04-10T22:36:22.662Z,9.83
2018-04-10T22:38:50.395Z,10.13
2018-04-10T22:41:18.312Z,13.53
2018-04-10T22:43:45.861Z,8.03
2018-04-10T22:46:13.386Z,5.77
2018-04-10T22:48:41.076Z,11.83
2018-04-10T22:51:08.612Z,11.30
2018-04-10T22:53:36.935Z,4.60
2018-04-10T22:56:04.473Z,8.93
2018-04-10T22:58:32.055Z,11.97
2018-04-10T23:00:59.595Z,5.30
2018-04-10T23:03:27.184Z,5.13
2018-04-10T23:05:54.732Z,11.50
2018-04-10T23:08:22.302Z,9.53
2018-04-10T23:10:49.859Z,13.43
2018-04-10T23:13:17.436Z,6.60
2018-04-10T23:15:47.592Z,5.63
2018-04-10T23:18:15.187Z,4.43
2018-04-10T23:20:42.723Z,5.20
2018-04-10T23:23:10.863Z,7.03
2018-04-10T23:25:38.391Z,7.57
2018-04-10T23:28:05.976Z,13.60
2018-04-10T23:30:33.524Z,9.27
2018-04-10T23:33:01.090Z,8.50
2018-04-10T23:35:28.652Z,10.23
2018-04-10T23:37:56.228Z,8.53
2018-04-10T23:40:23.765Z,10.33
2018-04-10T23:42:51.543Z,7.80
2018-04-10T23:45:19.085Z,7.33
2018-04-10T23:47:46.619Z,7.50
2018-04-10T23:50:14.203Z,22.03
2018-04-10T23:52:41.723Z,4.40
2018-04-10T23:55:09.288Z,4.80
2018-04-10T23:57:37.580Z,4.73
